LEMG/AGP METAR and TAF weather

Enter ICAO airport designator
Station Type Date Time Source
LEMG METAR 2020/01/18 13:00 UTC NOAA

LEMG 181300Z 27003KT 230V300 9999 FEW055 BKN080 14/09 Q1030 NOSIG


Station Type Date Time Source
LEMG Decoded METAR 2020/01/18 13:00 UTC NOAA

Malaga / Aeropuerto, Spain (LEMG) 36-40N 004-29W 7M
Jan 18, 2020 - 08:00 AM EST / 2020.01.18 1300 UTC
Wind: from the W (270 degrees) at 3 MPH (3 KT) (direction variable):0
Visibility: greater than 7 mile(s):0
Sky conditions: mostly cloudy
Temperature: 57 F (14 C)
Dew Point: 48 F (9 C)
Relative Humidity: 71%
Pressure (altimeter): 30.42 in. Hg (1030 hPa)
ob: LEMG 181300Z 27003KT 230V300 9999 FEW055 BKN080 14/09 Q1030 NOSIG
cycle: 13

Station Type Date Time Source
LEMG TAF 2020/01/18 12:27 UTC NOAA

TAF LEMG 181100Z 1812/1912 29006KT 9999 SCT035 BKN070 TX16/1814Z TN10/1906Z
BECMG 1812/1815 15003KT PROB30
TEMPO 1816/1901 4000 RA BKN014
BECMG 1823/1902 29013KT PROB40
TEMPO 1905/1908 30015G25KT

Example: see airport list